Main page
METAR-TAF:

METAR-TAF

Airports :

Cranwell, England

RAF Cranwell

latitude: 53-02N, longitude: 000-30W, elevation: 67 m

Current weather observation

The report was made 42 minutes ago, at 12:50 UTC
Wind 23 kt from the West
Temperature 11°C
Humidity 66%
Pressure 1009 hPa
Visibility 10 km or more

METAR: EGYD 221250Z AUTO 27023KT 9999 // BKN024/// BKN034/// 11/05 Q1009

Time: 14:32 (13:32 UTC)


TAF: missing

Weather observations and forecasts of more than 4000 airports (METAR and TAF reports).

The available stations are represented by yellow and red dots on the map.

Hover mouse over dot to see the name of the station.

Then click to see weather observations and forecasts.

To change the map : click on the green buttons with a black cross to zoom in, on the green button with a dash to zoom out, or on the green arrows for adjacent maps.


METAR-TAF: